Time,TemperatureF,DewpointF,PressureIn,WindDirection,WindDirectionDegrees,WindSpeedMPH,WindSpeedGustMPH,Humidity,HourlyPrecipIn,Conditions,Clouds,dailyrainin,SoftwareType,DateUTC
2013-03-09 00:09:00,57.6,55.3,29.75,South,184,4.0,4.0,92,0.00,,,0.00,Wunderground v.1.15,2013-03-08 23:09:00,
2013-03-09 00:14:00,57.5,55.2,29.75,South,191,4.0,4.0,92,0.00,,,0.00,Wunderground v.1.15,2013-03-08 23:14:00,
2013-03-09 00:24:00,57.4,55.1,29.74,SSW,199,4.0,7.0,92,0.00,,,0.00,Wunderground v.1.15,2013-03-08 23:24:00,
2013-03-09 00:34:00,57.3,55.0,29.74,SE,144,4.0,6.0,92,0.00,,,0.00,Wunderground v.1.15,2013-03-08 23:34:00,
2013-03-09 00:39:00,57.3,55.0,29.74,South,186,4.0,6.0,92,0.00,,,0.00,Wunderground v.1.15,2013-03-08 23:39:00,
2013-03-09 00:44:00,57.2,54.9,29.74,SSE,162,3.0,3.0,92,0.00,,,0.00,Wunderground v.1.15,2013-03-08 23:44:00,
2013-03-09 00:49:00,57.2,55.2,29.75,South,177,3.0,3.0,93,0.00,,,0.00,Wunderground v.1.15,2013-03-08 23:49:00,
2013-03-09 00:59:00,57.2,54.9,29.75,South,184,2.0,2.0,92,0.00,,,0.00,Wunderground v.1.15,2013-03-08 23:59:00,
2013-03-09 01:09:00,57.1,54.8,29.74,SSE,161,2.0,2.0,92,0.00,,,0.00,Wunderground v.1.15,2013-03-09 00:09:00,
2013-03-09 01:19:00,57.0,54.7,29.73,SSE,153,3.0,3.0,92,0.00,,,0.00,Wunderground v.1.15,2013-03-09 00:19:00,
2013-03-09 01:29:00,57.0,55.0,29.73,SSE,155,3.0,3.0,93,0.00,,,0.00,Wunderground v.1.15,2013-03-09 00:29:00,
2013-03-09 01:39:00,56.9,54.6,29.72,SE,144,2.0,2.0,92,0.00,,,0.00,Wunderground v.1.15,2013-03-09 00:39:00,
2013-03-09 01:44:00,56.9,54.6,29.73,SSE,158,2.0,2.0,92,0.00,,,0.00,Wunderground v.1.15,2013-03-09 00:44:00,
2013-03-09 01:54:00,56.9,54.6,29.73,SSE,164,2.0,2.0,92,0.00,,,0.00,Wunderground v.1.15,2013-03-09 00:54:00,
2013-03-09 02:04:00,56.9,54.6,29.72,SSE,164,1.0,1.0,92,0.00,,,0.00,Wunderground v.1.15,2013-03-09 01:04:00,
2013-03-09 02:09:00,56.9,54.9,29.73,SSE,157,2.0,4.0,93,0.00,,,0.00,Wunderground v.1.15,2013-03-09 01:09:00,
2013-03-09 02:14:00,57.0,54.7,29.72,South,174,3.0,3.0,92,0.00,,,0.00,Wunderground v.1.15,2013-03-09 01:14:00,
2013-03-09 02:24:00,57.0,55.0,29.72,SSE,157,3.0,3.0,93,0.00,,,0.00,Wunderground v.1.15,2013-03-09 01:24:00,
2013-03-09 02:29:00,57.0,55.0,29.72,South,177,3.0,3.0,93,0.00,,,0.00,Wunderground v.1.15,2013-03-09 01:29:00,
2013-03-09 02:39:00,56.9,54.9,29.72,SSE,153,2.0,3.0,93,0.00,,,0.00,Wunderground v.1.15,2013-03-09 01:39:00,
2013-03-09 02:44:00,56.9,54.9,29.73,SSE,163,2.0,2.0,93,0.00,,,0.00,Wunderground v.1.15,2013-03-09 01:44:00,
2013-03-09 02:49:00,56.9,54.9,29.73,SSE,153,3.0,4.0,93,0.00,,,0.00,Wunderground v.1.15,2013-03-09 01:49:00,
2013-03-09 02:59:00,56.8,54.8,29.72,SE,137,2.0,2.0,93,0.00,,,0.00,Wunderground v.1.15,2013-03-09 01:59:00,
2013-03-09 03:09:00,56.7,54.7,29.72,SE,124,2.0,2.0,93,0.00,,,0.00,Wunderground v.1.15,2013-03-09 02:09:00,
2013-03-09 03:14:00,56.7,54.7,29.72,ESE,123,2.0,2.0,93,0.00,,,0.00,Wunderground v.1.15,2013-03-09 02:14:00,
2013-03-09 03:24:00,56.6,54.6,29.72,ESE,123,0.0,1.0,93,0.00,,,0.00,Wunderground v.1.15,2013-03-09 02:24:00,
2013-03-09 03:33:00,56.5,54.5,29.72,ESE,117,1.0,1.0,93,0.00,,,0.00,Wunderground v.1.15,2013-03-09 02:33:00,
2013-03-09 03:39:00,56.4,54.4,29.71,ESE,117,1.0,2.0,93,0.00,,,0.00,Wunderground v.1.15,2013-03-09 02:39:00,
2013-03-09 03:44:00,56.4,54.4,29.72,ESE,117,0.0,0.0,93,0.00,,,0.00,Wunderground v.1.15,2013-03-09 02:44:00,
2013-03-09 03:49:00,56.4,54.4,29.71,ESE,117,1.0,1.0,93,0.00,,,0.00,Wunderground v.1.15,2013-03-09 02:49:00,
2013-03-09 03:59:00,56.3,54.3,29.71,ESE,117,0.0,0.0,93,0.00,,,0.00,Wunderground v.1.15,2013-03-09 02:59:00,
2013-03-09 04:09:00,56.4,54.4,29.71,SSE,158,3.0,7.0,93,0.00,,,0.00,Wunderground v.1.15,2013-03-09 03:09:00,
2013-03-09 04:14:00,56.4,54.4,29.70,SW,227,6.0,7.0,93,0.00,,,0.00,Wunderground v.1.15,2013-03-09 03:14:00,
2013-03-09 04:23:00,56.4,54.4,29.70,SW,223,7.0,9.0,93,0.00,,,0.00,Wunderground v.1.15,2013-03-09 03:23:00,
2013-03-09 04:33:00,56.7,54.4,29.70,SSW,194,7.0,9.0,92,0.00,,,0.00,Wunderground v.1.15,2013-03-09 03:33:00,
2013-03-09 04:38:00,56.9,54.3,29.70,SSE,167,7.0,9.0,91,0.00,,,0.00,Wunderground v.1.15,2013-03-09 03:38:00,
2013-03-09 04:44:00,57.0,54.1,29.70,SSW,208,7.0,8.0,90,0.00,,,0.00,Wunderground v.1.15,2013-03-09 03:44:00,
2013-03-09 04:53:00,57.5,54.0,29.70,South,176,7.0,7.0,88,0.00,,,0.00,Wunderground v.1.15,2013-03-09 03:53:00,
2013-03-09 04:59:00,58.7,53.9,29.70,SW,227,9.0,11.0,84,0.00,,,0.00,Wunderground v.1.15,2013-03-09 03:59:00,
2013-03-09 05:09:00,60.5,52.5,29.70,WSW,240,14.0,14.0,75,0.00,,,0.00,Wunderground v.1.15,2013-03-09 04:09:00,
2013-03-09 05:14:00,60.4,52.4,29.70,SW,228,13.0,14.0,75,0.00,,,0.00,Wunderground v.1.15,2013-03-09 04:14:00,
2013-03-09 05:23:00,60.8,52.1,29.70,WSW,238,13.0,13.0,73,0.00,,,0.00,Wunderground v.1.15,2013-03-09 04:23:00,
2013-03-09 05:29:00,60.7,52.0,29.70,WSW,246,11.0,11.0,73,0.00,,,0.00,Wunderground v.1.15,2013-03-09 04:29:00,
2013-03-09 05:39:00,61.1,51.6,29.70,WSW,250,11.0,11.0,71,0.00,,,0.00,Wunderground v.1.15,2013-03-09 04:39:00,
2013-03-09 05:44:00,61.2,50.9,29.70,WSW,254,9.0,11.0,69,0.00,,,0.00,Wunderground v.1.15,2013-03-09 04:44:00,
2013-03-09 05:49:00,61.7,50.6,29.70,SW,232,9.0,13.0,67,0.00,,,0.00,Wunderground v.1.15,2013-03-09 04:49:00,
2013-03-09 05:59:00,61.9,50.0,29.70,West,259,10.0,10.0,65,0.00,,,0.00,Wunderground v.1.15,2013-03-09 04:59:00,
2013-03-09 06:03:00,62.0,49.7,29.70,SW,236,9.0,11.0,64,0.00,,,0.00,Wunderground v.1.15,2013-03-09 05:03:00,
2013-03-09 06:08:00,62.2,49.9,29.70,SW,218,10.0,10.0,64,0.00,,,0.00,Wunderground v.1.15,2013-03-09 05:08:00,
2013-03-09 06:14:00,62.1,49.8,29.70,SW,233,11.0,11.0,64,0.00,,,0.00,Wunderground v.1.15,2013-03-09 05:14:00,
2013-03-09 06:18:00,62.2,49.0,29.71,West,263,12.0,18.0,62,0.00,,,0.00,Wunderground v.1.15,2013-03-09 05:18:00,
2013-03-09 06:23:00,62.5,48.9,29.71,WSW,256,12.0,18.0,61,0.00,,,0.00,Wunderground v.1.15,2013-03-09 05:23:00,
2013-03-09 06:33:00,62.2,49.0,29.72,WSW,248,12.0,12.0,62,0.00,,,0.00,Wunderground v.1.15,2013-03-09 05:33:00,
2013-03-09 06:38:00,61.9,48.7,29.72,West,259,10.0,12.0,62,0.00,,,0.00,Wunderground v.1.15,2013-03-09 05:38:00,
2013-03-09 06:44:00,62.0,48.8,29.72,WSW,248,9.0,11.0,62,0.00,,,0.00,Wunderground v.1.15,2013-03-09 05:44:00,
2013-03-09 06:49:00,61.9,48.7,29.72,WSW,245,10.0,11.0,62,0.00,,,0.00,Wunderground v.1.15,2013-03-09 05:49:00,
2013-03-09 06:59:00,61.6,48.9,29.72,WSW,250,9.0,10.0,63,0.00,,,0.00,Wunderground v.1.15,2013-03-09 05:59:00,
2013-03-09 07:08:00,61.7,48.1,29.72,WSW,252,10.0,10.0,61,0.00,,,0.00,Wunderground v.1.15,2013-03-09 06:08:00,
2013-03-09 07:18:00,61.7,48.1,29.72,West,266,10.0,13.0,61,0.00,,,0.00,Wunderground v.1.15,2013-03-09 06:18:00,
2013-03-09 07:33:00,61.6,48.0,29.72,West,263,9.0,9.0,61,0.00,,,0.00,Wunderground v.1.15,2013-03-09 06:33:00,
2013-03-09 07:38:00,61.5,48.4,29.73,West,264,8.0,10.0,62,0.00,,,0.00,Wunderground v.1.15,2013-03-09 06:38:00,
2013-03-09 07:43:00,61.4,48.3,29.73,WSW,242,6.0,9.0,62,0.00,,,0.00,Wunderground v.1.15,2013-03-09 06:43:00,
2013-03-09 07:53:00,61.4,48.3,29.73,WSW,249,6.0,6.0,62,0.00,,,0.00,Wunderground v.1.15,2013-03-09 06:53:00,
2013-03-09 07:59:00,61.4,48.3,29.73,SW,233,5.0,5.0,62,0.00,,,0.00,Wunderground v.1.15,2013-03-09 06:59:00,
2013-03-09 08:04:00,61.4,48.3,29.73,West,263,4.0,6.0,62,0.00,,,0.00,Wunderground v.1.15,2013-03-09 07:04:00,
2013-03-09 08:09:00,61.4,48.3,29.73,WSW,241,4.0,4.0,62,0.00,,,0.00,Wunderground v.1.15,2013-03-09 07:09:00,
2013-03-09 08:14:00,61.4,48.3,29.73,WNW,292,3.0,4.0,62,0.00,,,0.00,Wunderground v.1.15,2013-03-09 07:14:00,
2013-03-09 08:19:00,61.5,47.9,29.73,WNW,292,2.0,3.0,61,0.00,,,0.00,Wunderground v.1.15,2013-03-09 07:19:00,
2013-03-09 08:30:00,61.7,48.1,29.73,SW,230,3.0,8.0,61,0.00,,,0.00,Wunderground v.1.15,2013-03-09 07:30:00,
2013-03-09 08:39:00,61.7,48.1,29.73,WSW,246,6.0,6.0,61,0.00,,,0.00,Wunderground v.1.15,2013-03-09 07:39:00,
2013-03-09 08:44:00,61.8,47.8,29.73,SW,234,5.0,6.0,60,0.00,,,0.00,Wunderground v.1.15,2013-03-09 07:44:00,
2013-03-09 08:49:00,61.8,47.8,29.74,WSW,246,4.0,4.0,60,0.00,,,0.00,Wunderground v.1.15,2013-03-09 07:49:00,
2013-03-09 09:04:00,61.8,49.1,29.74,WSW,242,3.0,7.0,63,0.00,,,0.00,Wunderground v.1.15,2013-03-09 08:04:00,
2013-03-09 09:09:00,62.0,49.3,29.74,SW,223,4.0,7.0,63,0.00,,,0.00,Wunderground v.1.15,2013-03-09 08:09:00,
2013-03-09 09:14:00,61.7,49.4,29.74,SW,220,5.0,6.0,64,0.00,,,0.00,Wunderground v.1.15,2013-03-09 08:14:00,
2013-03-09 09:24:00,61.5,50.4,29.74,SW,230,7.0,8.0,67,0.00,,,0.00,Wunderground v.1.15,2013-03-09 08:24:00,
2013-03-09 09:29:00,61.5,49.6,29.74,West,265,7.0,11.0,65,0.00,,,0.00,Wunderground v.1.15,2013-03-09 08:29:00,
2013-03-09 09:39:00,62.7,47.7,29.74,West,279,9.0,10.0,58,0.00,,,0.00,Wunderground v.1.15,2013-03-09 08:39:00,
2013-03-09 09:44:00,63.1,47.1,29.74,WSW,249,9.0,10.0,56,0.00,,,0.00,Wunderground v.1.15,2013-03-09 08:44:00,
2013-03-09 09:54:00,63.1,49.0,29.75,WSW,256,7.0,7.0,60,0.00,,,0.00,Wunderground v.1.15,2013-03-09 08:54:00,
2013-03-09 09:59:00,63.1,49.0,29.75,WSW,251,6.0,9.0,60,0.00,,,0.00,Wunderground v.1.15,2013-03-09 08:59:00,
2013-03-09 10:09:00,63.4,47.4,29.75,WSW,257,8.0,8.0,56,0.00,,,0.00,Wunderground v.1.15,2013-03-09 09:09:00,
2013-03-09 10:14:00,63.9,47.4,29.75,WSW,255,7.0,8.0,55,0.00,,,0.00,Wunderground v.1.15,2013-03-09 09:14:00,
2013-03-09 10:24:00,64.2,47.2,29.75,SW,228,7.0,8.0,54,0.00,,,0.00,Wunderground v.1.15,2013-03-09 09:24:00,
2013-03-09 10:29:00,64.2,47.7,29.75,SW,219,7.0,7.0,55,0.00,,,0.00,Wunderground v.1.15,2013-03-09 09:29:00,
2013-03-09 10:39:00,64.0,48.0,29.75,WSW,237,8.0,8.0,56,0.00,,,0.00,Wunderground v.1.15,2013-03-09 09:39:00,
2013-03-09 10:49:00,64.2,47.7,29.75,WSW,255,9.0,12.0,55,0.00,,,0.00,Wunderground v.1.15,2013-03-09 09:49:00,
2013-03-09 11:04:00,64.7,47.7,29.75,West,271,8.0,8.0,54,0.00,,,0.00,Wunderground v.1.15,2013-03-09 10:04:00,
2013-03-09 11:09:00,65.2,47.1,29.75,SW,225,9.0,10.0,52,0.00,,,0.00,Wunderground v.1.15,2013-03-09 10:09:00,
2013-03-09 11:14:00,65.4,47.8,29.75,WSW,248,8.0,8.0,53,0.00,,,0.00,Wunderground v.1.15,2013-03-09 10:14:00,
2013-03-09 11:19:00,65.4,45.7,29.76,WSW,248,8.0,9.0,49,0.00,,,0.00,Wunderground v.1.15,2013-03-09 10:19:00,
2013-03-09 11:29:00,65.4,46.8,29.76,WSW,249,8.0,9.0,51,0.00,,,0.00,Wunderground v.1.15,2013-03-09 10:29:00,
2013-03-09 11:39:00,65.8,48.2,29.76,WSW,251,7.0,8.0,53,0.00,,,0.00,Wunderground v.1.15,2013-03-09 10:39:00,
2013-03-09 11:44:00,65.0,51.2,29.77,SSW,199,5.0,5.0,61,0.00,,,0.00,Wunderground v.1.15,2013-03-09 10:44:00,
2013-03-09 11:49:00,63.8,52.2,29.77,SSW,196,5.0,5.0,66,0.00,,,0.00,Wunderground v.1.15,2013-03-09 10:49:00,
2013-03-09 12:04:00,62.5,49.7,29.77,WSW,251,8.0,9.0,63,0.00,,,0.00,Wunderground v.1.15,2013-03-09 11:04:00,
2013-03-09 12:09:00,63.6,48.5,29.77,SW,229,9.0,10.0,58,0.00,,,0.00,Wunderground v.1.15,2013-03-09 11:09:00,
2013-03-09 12:19:00,63.8,49.6,29.76,WSW,240,9.0,10.0,60,0.00,,,0.00,Wunderground v.1.15,2013-03-09 11:19:00,
2013-03-09 12:29:00,64.2,48.6,29.76,SW,228,7.0,8.0,57,0.00,,,0.00,Wunderground v.1.15,2013-03-09 11:29:00,
2013-03-09 12:39:00,64.7,46.7,29.77,SW,234,7.0,7.0,52,0.00,,,0.00,Wunderground v.1.15,2013-03-09 11:39:00,
2013-03-09 12:44:00,64.3,49.7,29.77,WSW,237,7.0,7.0,59,0.00,,,0.00,Wunderground v.1.15,2013-03-09 11:44:00,
2013-03-09 12:54:00,64.5,46.5,29.77,West,265,9.0,13.0,52,0.00,,,0.00,Wunderground v.1.15,2013-03-09 11:54:00,
2013-03-09 13:04:00,65.4,44.6,29.76,WSW,250,13.0,15.0,47,0.00,,,0.00,Wunderground v.1.15,2013-03-09 12:04:00,
2013-03-09 13:09:00,65.9,44.5,29.76,WNW,284,14.0,15.0,46,0.00,,,0.00,Wunderground v.1.15,2013-03-09 12:09:00,
2013-03-09 13:19:00,66.0,43.5,29.75,WSW,255,15.0,18.0,44,0.00,,,0.00,Wunderground v.1.15,2013-03-09 12:19:00,
2013-03-09 13:34:00,66.0,46.3,29.75,SW,230,13.0,13.0,49,0.00,,,0.00,Wunderground v.1.15,2013-03-09 12:34:00,
2013-03-09 13:39:00,66.1,45.8,29.75,West,260,12.0,13.0,48,0.00,,,0.00,Wunderground v.1.15,2013-03-09 12:39:00,
2013-03-09 13:49:00,66.3,46.6,29.74,West,273,15.0,20.0,49,0.00,,,0.00,Wunderground v.1.15,2013-03-09 12:49:00,
2013-03-09 13:54:00,66.0,46.8,29.74,SW,221,15.0,15.0,50,0.00,,,0.00,Wunderground v.1.15,2013-03-09 12:54:00,
2013-03-09 13:59:00,65.6,48.5,29.74,SW,236,14.0,14.0,54,0.00,,,0.00,Wunderground v.1.15,2013-03-09 12:59:00,
2013-03-09 14:09:00,64.6,48.5,29.74,SW,234,12.0,12.0,56,0.00,,,0.00,Wunderground v.1.15,2013-03-09 13:09:00,
2013-03-09 14:14:00,63.6,49.9,29.73,SW,223,11.0,12.0,61,0.00,,,0.00,Wunderground v.1.15,2013-03-09 13:14:00,
2013-03-09 14:19:00,63.4,50.1,29.73,SW,218,10.0,11.0,62,0.00,,,0.00,Wunderground v.1.15,2013-03-09 13:19:00,
2013-03-09 14:34:00,64.4,50.7,29.72,SW,230,9.0,9.0,61,0.00,,,0.00,Wunderground v.1.15,2013-03-09 13:34:00,
2013-03-09 14:39:00,63.7,51.7,29.72,SSW,192,7.0,11.0,65,0.00,,,0.00,Wunderground v.1.15,2013-03-09 13:39:00,
2013-03-09 14:44:00,63.1,52.4,29.72,South,181,6.0,6.0,68,0.00,,,0.00,Wunderground v.1.15,2013-03-09 13:44:00,
2013-03-09 14:54:00,62.4,52.5,29.72,SW,235,9.0,9.0,70,0.00,,,0.00,Wunderground v.1.15,2013-03-09 13:54:00,
2013-03-09 14:59:00,62.5,52.6,29.72,SW,225,9.0,9.0,70,0.00,,,0.00,Wunderground v.1.15,2013-03-09 13:59:00,
2013-03-09 15:09:00,63.1,53.2,29.72,South,188,8.0,8.0,70,0.00,,,0.00,Wunderground v.1.15,2013-03-09 14:09:00,
2013-03-09 15:14:00,62.8,53.3,29.72,SSW,205,8.0,8.0,71,0.00,,,0.00,Wunderground v.1.15,2013-03-09 14:14:00,
2013-03-09 15:19:00,62.4,52.9,29.72,SW,228,8.0,8.0,71,0.00,,,0.00,Wunderground v.1.15,2013-03-09 14:19:00,
2013-03-09 15:29:00,62.5,52.2,29.72,SW,225,9.0,9.0,69,0.00,,,0.00,Wunderground v.1.15,2013-03-09 14:29:00,
2013-03-09 15:39:00,62.6,52.7,29.72,SW,232,7.0,10.0,70,0.00,,,0.00,Wunderground v.1.15,2013-03-09 14:39:00,
2013-03-09 15:44:00,62.6,53.1,29.72,SW,220,8.0,10.0,71,0.00,,,0.00,Wunderground v.1.15,2013-03-09 14:44:00,
2013-03-09 15:54:00,61.5,53.1,29.73,SSW,198,8.0,8.0,74,0.00,,,0.00,Wunderground v.1.15,2013-03-09 14:54:00,
2013-03-09 16:04:00,60.9,53.3,29.73,SW,216,8.0,8.0,76,0.00,,,0.00,Wunderground v.1.15,2013-03-09 15:04:00,
2013-03-09 16:09:00,60.9,53.6,29.73,South,173,8.0,8.0,77,0.00,,,0.00,Wunderground v.1.15,2013-03-09 15:09:00,
2013-03-09 16:14:00,60.9,53.6,29.73,SSW,193,7.0,7.0,77,0.00,,,0.00,Wunderground v.1.15,2013-03-09 15:14:00,
2013-03-09 16:24:00,61.3,54.4,29.73,SSE,165,5.0,5.0,78,0.00,,,0.00,Wunderground v.1.15,2013-03-09 15:24:00,
2013-03-09 16:34:00,61.1,54.2,29.73,South,180,5.0,7.0,78,0.00,,,0.00,Wunderground v.1.15,2013-03-09 15:34:00,
2013-03-09 16:39:00,61.1,54.5,29.73,South,189,5.0,8.0,79,0.00,,,0.00,Wunderground v.1.15,2013-03-09 15:39:00,
2013-03-09 16:44:00,61.0,54.4,29.73,SSE,168,5.0,6.0,79,0.00,,,0.00,Wunderground v.1.15,2013-03-09 15:44:00,
2013-03-09 16:49:00,61.2,55.0,29.73,SSW,205,5.0,6.0,80,0.00,,,0.00,Wunderground v.1.15,2013-03-09 15:49:00,
2013-03-09 16:59:00,61.2,55.0,29.73,SW,214,4.0,6.0,80,0.00,,,0.00,Wunderground v.1.15,2013-03-09 15:59:00,
2013-03-09 17:09:00,61.0,55.1,29.73,SSW,198,4.0,6.0,81,0.00,,,0.00,Wunderground v.1.15,2013-03-09 16:09:00,
2013-03-09 17:14:00,60.9,55.4,29.72,SSW,199,4.0,6.0,82,0.00,,,0.00,Wunderground v.1.15,2013-03-09 16:14:00,
2013-03-09 17:19:00,60.8,55.3,29.72,SSW,197,5.0,5.0,82,0.00,,,0.00,Wunderground v.1.15,2013-03-09 16:19:00,
2013-03-09 17:34:00,60.3,54.8,29.73,South,190,6.0,6.0,82,0.00,,,0.00,Wunderground v.1.15,2013-03-09 16:34:00,
2013-03-09 17:39:00,60.2,54.7,29.73,SW,230,7.0,7.0,82,0.00,,,0.00,Wunderground v.1.15,2013-03-09 16:39:00,
2013-03-09 17:44:00,60.2,54.7,29.73,SSW,209,8.0,8.0,82,0.00,,,0.00,Wunderground v.1.15,2013-03-09 16:44:00,
2013-03-09 17:49:00,60.2,54.3,29.73,SSW,213,7.0,8.0,81,0.00,,,0.00,Wunderground v.1.15,2013-03-09 16:49:00,
2013-03-09 17:59:00,59.9,54.4,29.74,SW,232,8.0,11.0,82,0.00,,,0.00,Wunderground v.1.15,2013-03-09 16:59:00,
2013-03-09 18:09:00,59.9,54.4,29.74,SW,214,6.0,6.0,82,0.00,,,0.00,Wunderground v.1.15,2013-03-09 17:09:00,
2013-03-09 18:14:00,59.8,54.6,29.74,SW,221,6.0,6.0,83,0.00,,,0.00,Wunderground v.1.15,2013-03-09 17:14:00,
2013-03-09 18:24:00,59.4,54.9,29.74,SSE,165,6.0,6.0,85,0.00,,,0.00,Wunderground v.1.15,2013-03-09 17:24:00,
2013-03-09 18:29:00,59.1,54.9,29.74,SSW,201,7.0,10.0,86,0.00,,,0.00,Wunderground v.1.15,2013-03-09 17:29:00,
2013-03-09 18:39:00,58.9,55.0,29.74,SW,214,5.0,10.0,87,0.00,,,0.00,Wunderground v.1.15,2013-03-09 17:39:00,
2013-03-09 18:44:00,58.8,54.9,29.74,SW,221,5.0,5.0,87,0.00,,,0.00,Wunderground v.1.15,2013-03-09 17:44:00,
2013-03-09 18:49:00,58.7,54.8,29.73,SSW,200,4.0,5.0,87,0.00,,,0.00,Wunderground v.1.15,2013-03-09 17:49:00,
2013-03-09 19:03:00,58.5,55.0,29.73,SSW,211,3.0,3.0,88,0.00,,,0.00,Wunderground v.1.15,2013-03-09 18:03:00,
2013-03-09 19:09:00,58.5,55.0,29.73,SSE,163,3.0,3.0,88,0.00,,,0.00,Wunderground v.1.15,2013-03-09 18:09:00,
2013-03-09 19:14:00,58.4,54.9,29.73,SSE,161,3.0,6.0,88,0.00,,,0.00,Wunderground v.1.15,2013-03-09 18:14:00,
2013-03-09 19:23:00,58.3,54.8,29.74,South,181,3.0,3.0,88,0.00,,,0.00,Wunderground v.1.15,2013-03-09 18:23:00,
2013-03-09 19:33:00,58.3,55.1,29.74,South,191,3.0,3.0,89,0.00,,,0.00,Wunderground v.1.15,2013-03-09 18:33:00,
2013-03-09 19:39:00,58.2,55.0,29.74,SSW,193,3.0,3.0,89,0.00,,,0.00,Wunderground v.1.15,2013-03-09 18:39:00,
2013-03-09 19:49:00,58.1,54.9,29.74,SSW,213,3.0,4.0,89,0.00,,,0.00,Wunderground v.1.15,2013-03-09 18:49:00,
2013-03-09 20:03:00,58.1,54.9,29.74,SSW,202,2.0,2.0,89,0.00,,,0.00,Wunderground v.1.15,2013-03-09 19:03:00,
2013-03-09 20:08:00,58.1,54.9,29.74,SSW,202,1.0,2.0,89,0.00,,,0.00,Wunderground v.1.15,2013-03-09 19:08:00,
2013-03-09 20:14:00,58.1,54.9,29.74,SSW,202,1.0,1.0,89,0.00,,,0.00,Wunderground v.1.15,2013-03-09 19:14:00,
2013-03-09 20:24:00,58.1,54.6,29.74,SSW,202,0.0,0.0,88,0.00,,,0.00,Wunderground v.1.15,2013-03-09 19:24:00,
2013-03-09 20:34:00,58.0,54.5,29.74,SSW,202,0.0,0.0,88,0.00,,,0.00,Wunderground v.1.15,2013-03-09 19:34:00,
2013-03-09 20:39:00,58.0,54.5,29.74,SSW,202,0.0,0.0,88,0.00,,,0.00,Wunderground v.1.15,2013-03-09 19:39:00,
2013-03-09 20:44:00,58.0,54.5,29.74,SSW,202,0.0,2.0,88,0.00,,,0.00,Wunderground v.1.15,2013-03-09 19:44:00,
2013-03-09 20:49:00,58.0,54.5,29.74,South,171,1.0,2.0,88,0.00,,,0.00,Wunderground v.1.15,2013-03-09 19:49:00,
2013-03-09 21:03:00,58.0,54.5,29.75,South,171,0.0,1.0,88,0.00,,,0.00,Wunderground v.1.15,2013-03-09 20:03:00,
2013-03-09 21:08:00,58.0,54.5,29.75,South,171,0.0,1.0,88,0.00,,,0.00,Wunderground v.1.15,2013-03-09 20:08:00,
2013-03-09 21:14:00,58.0,54.5,29.74,South,171,0.0,0.0,88,0.00,,,0.00,Wunderground v.1.15,2013-03-09 20:14:00,
2013-03-09 21:23:00,57.9,54.4,29.74,South,171,0.0,4.0,88,0.00,,,0.00,Wunderground v.1.15,2013-03-09 20:23:00,
2013-03-09 21:29:00,57.9,54.4,29.74,SSE,160,1.0,4.0,88,0.00,,,0.00,Wunderground v.1.15,2013-03-09 20:29:00,
2013-03-09 21:44:00,58.1,54.6,29.75,SSE,151,3.0,3.0,88,0.00,,,0.00,Wunderground v.1.15,2013-03-09 20:44:00,
2013-03-09 21:49:00,58.1,54.6,29.75,SSE,151,2.0,3.0,88,0.00,,,0.00,Wunderground v.1.15,2013-03-09 20:49:00,
2013-03-09 21:59:00,58.1,54.6,29.75,SSE,151,2.0,2.0,88,0.00,,,0.00,Wunderground v.1.15,2013-03-09 20:59:00,
2013-03-09 22:09:00,58.1,54.6,29.74,SSE,151,1.0,1.0,88,0.00,,,0.00,Wunderground v.1.15,2013-03-09 21:09:00,
2013-03-09 22:14:00,58.1,54.6,29.74,South,170,2.0,2.0,88,0.00,,,0.00,Wunderground v.1.15,2013-03-09 21:14:00,
2013-03-09 22:23:00,58.1,54.9,29.74,South,175,2.0,6.0,89,0.00,,,0.00,Wunderground v.1.15,2013-03-09 21:23:00,
2013-03-09 22:29:00,58.1,54.9,29.74,SSE,163,2.0,4.0,89,0.00,,,0.00,Wunderground v.1.15,2013-03-09 21:29:00,
2013-03-09 22:39:00,58.0,54.8,29.74,SE,139,2.0,7.0,89,0.00,,,0.00,Wunderground v.1.15,2013-03-09 21:39:00,
2013-03-09 22:44:00,58.0,54.8,29.74,SSE,148,3.0,3.0,89,0.00,,,0.00,Wunderground v.1.15,2013-03-09 21:44:00,
2013-03-09 22:54:00,58.0,54.8,29.74,SE,145,2.0,2.0,89,0.00,,,0.00,Wunderground v.1.15,2013-03-09 21:54:00,
2013-03-09 22:59:00,58.0,54.8,29.73,SSE,148,2.0,2.0,89,0.00,,,0.00,Wunderground v.1.15,2013-03-09 21:59:00,
2013-03-09 23:09:00,58.0,54.8,29.73,SSE,158,2.0,5.0,89,0.00,,,0.00,Wunderground v.1.15,2013-03-09 22:09:00,
2013-03-09 23:14:00,57.9,55.0,29.73,SSE,165,3.0,5.0,90,0.00,,,0.00,Wunderground v.1.15,2013-03-09 22:14:00,
2013-03-09 23:23:00,57.8,54.9,29.72,SSE,166,2.0,5.0,90,0.00,,,0.00,Wunderground v.1.15,2013-03-09 22:23:00,
2013-03-09 23:29:00,57.8,54.9,29.72,SSE,160,2.0,2.0,90,0.00,,,0.00,Wunderground v.1.15,2013-03-09 22:29:00,
2013-03-09 23:38:00,57.9,55.0,29.72,SE,142,3.0,3.0,90,0.00,,,0.00,Wunderground v.1.15,2013-03-09 22:38:00,
2013-03-09 23:44:00,57.9,55.0,29.72,SSE,165,4.0,4.0,90,0.00,,,0.00,Wunderground v.1.15,2013-03-09 22:44:00,
2013-03-09 23:54:00,57.9,55.3,29.72,SSE,159,4.0,5.0,91,0.00,,,0.00,Wunderground v.1.15,2013-03-09 22:54:00,